sensor_id;sensor_type;location;lat;lon;timestamp;P1;durP1;ratioP1;P2;durP2;ratioP2
2724;SDS011;1370;52.596;13.112;2024-03-02T00:01:57;51.00;;;28.50;;
2724;SDS011;1370;52.596;13.112;2024-03-02T00:04:23;47.30;;;30.57;;
2724;SDS011;1370;52.596;13.112;2024-03-02T00:06:50;60.10;;;33.10;;
2724;SDS011;1370;52.596;13.112;2024-03-02T00:09:17;51.47;;;30.63;;
2724;SDS011;1370;52.596;13.112;2024-03-02T00:11:43;58.03;;;31.80;;
2724;SDS011;1370;52.596;13.112;2024-03-02T00:14:08;54.13;;;32.57;;
2724;SDS011;1370;52.596;13.112;2024-03-02T00:16:34;60.53;;;33.73;;
2724;SDS011;1370;52.596;13.112;2024-03-02T00:19:03;51.60;;;30.73;;
2724;SDS011;1370;52.596;13.112;2024-03-02T00:21:30;60.73;;;32.77;;
2724;SDS011;1370;52.596;13.112;2024-03-02T00:23:56;44.50;;;30.03;;
2724;SDS011;1370;52.596;13.112;2024-03-02T00:26:21;68.47;;;31.27;;
2724;SDS011;1370;52.596;13.112;2024-03-02T00:28:46;60.67;;;32.73;;
2724;SDS011;1370;52.596;13.112;2024-03-02T00:31:13;48.23;;;31.67;;
2724;SDS011;1370;52.596;13.112;2024-03-02T00:36:09;47.40;;;30.57;;
2724;SDS011;1370;52.596;13.112;2024-03-02T00:38:42;59.80;;;34.00;;
2724;SDS011;1370;52.596;13.112;2024-03-02T00:41:07;56.03;;;33.00;;
2724;SDS011;1370;52.596;13.112;2024-03-02T00:46:07;49.10;;;30.50;;
2724;SDS011;1370;52.596;13.112;2024-03-02T00:48:33;54.00;;;32.40;;
2724;SDS011;1370;52.596;13.112;2024-03-02T00:51:01;48.43;;;30.47;;
2724;SDS011;1370;52.596;13.112;2024-03-02T00:53:32;53.43;;;30.87;;
2724;SDS011;1370;52.596;13.112;2024-03-02T00:55:58;46.83;;;31.00;;
2724;SDS011;1370;52.596;13.112;2024-03-02T00:58:24;48.40;;;28.60;;
2724;SDS011;1370;52.596;13.112;2024-03-02T01:00:50;52.47;;;32.60;;
2724;SDS011;1370;52.596;13.112;2024-03-02T01:03:15;53.43;;;32.27;;
2724;SDS011;1370;52.596;13.112;2024-03-02T01:05:41;58.27;;;33.20;;
2724;SDS011;1370;52.596;13.112;2024-03-02T01:08:07;55.40;;;32.93;;
2724;SDS011;1370;52.596;13.112;2024-03-02T01:10:32;48.80;;;31.07;;
2724;SDS011;1370;52.596;13.112;2024-03-02T01:12:57;61.47;;;32.83;;
2724;SDS011;1370;52.596;13.112;2024-03-02T01:15:23;49.13;;;32.07;;
2724;SDS011;1370;52.596;13.112;2024-03-02T01:17:48;50.97;;;30.23;;
2724;SDS011;1370;52.596;13.112;2024-03-02T01:20:13;49.23;;;29.67;;
2724;SDS011;1370;52.596;13.112;2024-03-02T01:22:38;56.57;;;31.80;;
2724;SDS011;1370;52.596;13.112;2024-03-02T01:25:04;51.80;;;32.23;;
2724;SDS011;1370;52.596;13.112;2024-03-02T01:27:30;51.27;;;33.03;;
2724;SDS011;1370;52.596;13.112;2024-03-02T01:29:55;52.60;;;34.50;;
2724;SDS011;1370;52.596;13.112;2024-03-02T01:32:20;52.37;;;33.30;;
2724;SDS011;1370;52.596;13.112;2024-03-02T01:34:46;45.77;;;30.97;;
2724;SDS011;1370;52.596;13.112;2024-03-02T01:37:11;47.53;;;32.10;;
2724;SDS011;1370;52.596;13.112;2024-03-02T01:39:36;47.00;;;30.97;;
2724;SDS011;1370;52.596;13.112;2024-03-02T01:42:02;49.50;;;30.47;;
2724;SDS011;1370;52.596;13.112;2024-03-02T01:44:27;46.63;;;28.80;;
2724;SDS011;1370;52.596;13.112;2024-03-02T01:46:52;51.97;;;32.70;;
2724;SDS011;1370;52.596;13.112;2024-03-02T01:49:18;54.63;;;29.50;;
2724;SDS011;1370;52.596;13.112;2024-03-02T01:51:43;48.17;;;29.60;;
2724;SDS011;1370;52.596;13.112;2024-03-02T01:54:09;55.37;;;32.47;;
2724;SDS011;1370;52.596;13.112;2024-03-02T01:56:34;51.13;;;33.13;;
2724;SDS011;1370;52.596;13.112;2024-03-02T01:58:59;53.37;;;34.97;;
2724;SDS011;1370;52.596;13.112;2024-03-02T02:01:24;57.73;;;31.57;;
2724;SDS011;1370;52.596;13.112;2024-03-02T02:03:50;50.13;;;32.47;;
2724;SDS011;1370;52.596;13.112;2024-03-02T02:06:15;48.97;;;31.80;;
2724;SDS011;1370;52.596;13.112;2024-03-02T02:08:40;56.93;;;32.30;;
2724;SDS011;1370;52.596;13.112;2024-03-02T02:11:06;56.93;;;32.40;;
2724;SDS011;1370;52.596;13.112;2024-03-02T02:13:31;58.73;;;32.80;;
2724;SDS011;1370;52.596;13.112;2024-03-02T02:16:03;50.73;;;31.63;;
2724;SDS011;1370;52.596;13.112;2024-03-02T02:18:30;50.40;;;32.27;;
2724;SDS011;1370;52.596;13.112;2024-03-02T02:20:55;54.57;;;32.90;;
2724;SDS011;1370;52.596;13.112;2024-03-02T02:23:20;62.23;;;34.50;;
2724;SDS011;1370;52.596;13.112;2024-03-02T02:25:45;72.83;;;37.23;;
2724;SDS011;1370;52.596;13.112;2024-03-02T02:28:11;51.30;;;33.20;;
2724;SDS011;1370;52.596;13.112;2024-03-02T02:30:36;56.13;;;32.23;;
2724;SDS011;1370;52.596;13.112;2024-03-02T02:33:01;57.80;;;33.10;;
2724;SDS011;1370;52.596;13.112;2024-03-02T02:35:27;53.43;;;33.40;;
2724;SDS011;1370;52.596;13.112;2024-03-02T02:37:53;55.57;;;33.37;;
2724;SDS011;1370;52.596;13.112;2024-03-02T02:40:19;56.00;;;32.90;;
2724;SDS011;1370;52.596;13.112;2024-03-02T02:42:44;53.07;;;30.80;;
2724;SDS011;1370;52.596;13.112;2024-03-02T02:45:10;52.67;;;33.23;;
2724;SDS011;1370;52.596;13.112;2024-03-02T02:47:37;56.70;;;31.63;;
2724;SDS011;1370;52.596;13.112;2024-03-02T02:50:03;56.60;;;33.27;;
2724;SDS011;1370;52.596;13.112;2024-03-02T02:52:32;43.47;;;28.93;;
2724;SDS011;1370;52.596;13.112;2024-03-02T02:54:58;54.17;;;32.87;;
2724;SDS011;1370;52.596;13.112;2024-03-02T02:57:24;58.63;;;33.67;;
2724;SDS011;1370;52.596;13.112;2024-03-02T02:59:49;53.77;;;31.80;;
2724;SDS011;1370;52.596;13.112;2024-03-02T03:02:14;53.83;;;32.33;;
2724;SDS011;1370;52.596;13.112;2024-03-02T03:04:40;59.27;;;33.20;;
2724;SDS011;1370;52.596;13.112;2024-03-02T03:07:05;59.07;;;32.30;;
2724;SDS011;1370;52.596;13.112;2024-03-02T03:09:31;56.73;;;32.63;;
2724;SDS011;1370;52.596;13.112;2024-03-02T03:11:56;51.70;;;34.70;;
2724;SDS011;1370;52.596;13.112;2024-03-02T03:14:21;54.53;;;35.30;;
2724;SDS011;1370;52.596;13.112;2024-03-02T03:16:46;50.57;;;32.87;;
2724;SDS011;1370;52.596;13.112;2024-03-02T03:19:13;58.93;;;35.57;;
2724;SDS011;1370;52.596;13.112;2024-03-02T03:21:38;53.73;;;36.10;;
2724;SDS011;1370;52.596;13.112;2024-03-02T03:24:04;56.20;;;36.00;;
2724;SDS011;1370;52.596;13.112;2024-03-02T03:26:29;59.53;;;34.60;;
2724;SDS011;1370;52.596;13.112;2024-03-02T03:28:54;59.90;;;35.10;;
2724;SDS011;1370;52.596;13.112;2024-03-02T03:31:20;47.50;;;31.37;;
2724;SDS011;1370;52.596;13.112;2024-03-02T03:33:45;50.53;;;30.20;;
2724;SDS011;1370;52.596;13.112;2024-03-02T03:36:10;46.13;;;30.67;;
2724;SDS011;1370;52.596;13.112;2024-03-02T03:38:36;44.93;;;30.13;;
2724;SDS011;1370;52.596;13.112;2024-03-02T03:41:01;46.43;;;29.80;;
2724;SDS011;1370;52.596;13.112;2024-03-02T03:43:26;45.53;;;31.27;;
2724;SDS011;1370;52.596;13.112;2024-03-02T03:45:51;51.23;;;32.30;;
2724;SDS011;1370;52.596;13.112;2024-03-02T03:48:17;47.07;;;30.43;;
2724;SDS011;1370;52.596;13.112;2024-03-02T03:50:42;51.77;;;32.53;;
2724;SDS011;1370;52.596;13.112;2024-03-02T03:53:07;64.37;;;40.83;;
2724;SDS011;1370;52.596;13.112;2024-03-02T03:55:33;65.97;;;41.00;;
2724;SDS011;1370;52.596;13.112;2024-03-02T03:57:58;72.37;;;41.53;;
2724;SDS011;1370;52.596;13.112;2024-03-02T04:00:24;62.43;;;38.30;;
2724;SDS011;1370;52.596;13.112;2024-03-02T04:02:49;65.43;;;37.70;;
2724;SDS011;1370;52.596;13.112;2024-03-02T04:05:14;54.03;;;36.60;;
2724;SDS011;1370;52.596;13.112;2024-03-02T04:07:39;49.30;;;33.77;;
2724;SDS011;1370;52.596;13.112;2024-03-02T04:10:08;57.40;;;35.20;;
2724;SDS011;1370;52.596;13.112;2024-03-02T04:12:35;55.47;;;36.33;;
2724;SDS011;1370;52.596;13.112;2024-03-02T04:15:02;54.70;;;35.57;;
2724;SDS011;1370;52.596;13.112;2024-03-02T04:17:28;45.30;;;30.20;;
2724;SDS011;1370;52.596;13.112;2024-03-02T04:19:54;51.57;;;32.80;;
2724;SDS011;1370;52.596;13.112;2024-03-02T04:22:19;54.23;;;32.13;;
2724;SDS011;1370;52.596;13.112;2024-03-02T04:24:44;49.23;;;32.53;;
2724;SDS011;1370;52.596;13.112;2024-03-02T04:27:10;50.27;;;33.90;;
2724;SDS011;1370;52.596;13.112;2024-03-02T04:29:35;58.60;;;32.47;;
2724;SDS011;1370;52.596;13.112;2024-03-02T04:32:00;51.93;;;30.33;;
2724;SDS011;1370;52.596;13.112;2024-03-02T04:34:25;52.47;;;33.47;;
2724;SDS011;1370;52.596;13.112;2024-03-02T04:36:51;49.43;;;34.17;;
2724;SDS011;1370;52.596;13.112;2024-03-02T04:39:16;47.17;;;32.40;;
2724;SDS011;1370;52.596;13.112;2024-03-02T04:41:41;50.77;;;32.27;;
2724;SDS011;1370;52.596;13.112;2024-03-02T04:44:07;53.30;;;34.23;;
2724;SDS011;1370;52.596;13.112;2024-03-02T04:46:33;52.30;;;32.10;;
2724;SDS011;1370;52.596;13.112;2024-03-02T04:48:58;51.00;;;33.70;;
2724;SDS011;1370;52.596;13.112;2024-03-02T04:51:23;65.63;;;37.13;;
2724;SDS011;1370;52.596;13.112;2024-03-02T04:53:48;51.67;;;33.60;;
2724;SDS011;1370;52.596;13.112;2024-03-02T04:56:14;48.60;;;32.63;;
2724;SDS011;1370;52.596;13.112;2024-03-02T04:58:59;59.57;;;33.93;;
2724;SDS011;1370;52.596;13.112;2024-03-02T05:01:24;47.87;;;30.23;;
2724;SDS011;1370;52.596;13.112;2024-03-02T05:03:50;52.70;;;31.70;;
2724;SDS011;1370;52.596;13.112;2024-03-02T05:06:15;61.87;;;34.00;;
2724;SDS011;1370;52.596;13.112;2024-03-02T05:08:40;53.63;;;36.80;;
2724;SDS011;1370;52.596;13.112;2024-03-02T05:11:06;54.00;;;32.43;;
2724;SDS011;1370;52.596;13.112;2024-03-02T05:13:50;53.13;;;35.03;;
2724;SDS011;1370;52.596;13.112;2024-03-02T05:16:15;56.27;;;33.33;;
2724;SDS011;1370;52.596;13.112;2024-03-02T05:18:40;55.53;;;34.53;;
2724;SDS011;1370;52.596;13.112;2024-03-02T05:21:06;53.90;;;34.43;;
2724;SDS011;1370;52.596;13.112;2024-03-02T05:23:31;62.03;;;36.87;;
2724;SDS011;1370;52.596;13.112;2024-03-02T05:25:56;54.20;;;33.70;;
2724;SDS011;1370;52.596;13.112;2024-03-02T05:28:21;52.00;;;34.90;;
2724;SDS011;1370;52.596;13.112;2024-03-02T05:30:47;58.60;;;34.53;;
2724;SDS011;1370;52.596;13.112;2024-03-02T05:33:12;55.03;;;35.03;;
2724;SDS011;1370;52.596;13.112;2024-03-02T05:35:37;55.90;;;35.20;;
2724;SDS011;1370;52.596;13.112;2024-03-02T05:38:03;46.40;;;32.97;;
2724;SDS011;1370;52.596;13.112;2024-03-02T05:40:28;62.30;;;40.17;;
2724;SDS011;1370;52.596;13.112;2024-03-02T05:42:54;54.40;;;34.60;;
2724;SDS011;1370;52.596;13.112;2024-03-02T05:45:19;61.13;;;36.67;;
2724;SDS011;1370;52.596;13.112;2024-03-02T05:47:44;65.40;;;37.93;;
2724;SDS011;1370;52.596;13.112;2024-03-02T05:50:09;68.03;;;39.67;;
2724;SDS011;1370;52.596;13.112;2024-03-02T05:52:35;63.60;;;39.00;;
2724;SDS011;1370;52.596;13.112;2024-03-02T05:55:00;70.30;;;40.30;;
2724;SDS011;1370;52.596;13.112;2024-03-02T05:57:25;64.90;;;38.90;;
2724;SDS011;1370;52.596;13.112;2024-03-02T06:00:12;69.83;;;39.60;;
2724;SDS011;1370;52.596;13.112;2024-03-02T06:02:41;67.33;;;40.50;;
2724;SDS011;1370;52.596;13.112;2024-03-02T06:05:06;66.33;;;45.03;;
2724;SDS011;1370;52.596;13.112;2024-03-02T06:07:32;62.77;;;41.43;;
2724;SDS011;1370;52.596;13.112;2024-03-02T06:09:57;68.23;;;38.80;;
2724;SDS011;1370;52.596;13.112;2024-03-02T06:12:23;66.47;;;42.27;;
2724;SDS011;1370;52.596;13.112;2024-03-02T06:14:48;63.97;;;40.13;;
2724;SDS011;1370;52.596;13.112;2024-03-02T06:17:14;70.43;;;41.33;;
2724;SDS011;1370;52.596;13.112;2024-03-02T06:19:39;62.03;;;37.73;;
2724;SDS011;1370;52.596;13.112;2024-03-02T06:22:04;75.43;;;42.93;;
2724;SDS011;1370;52.596;13.112;2024-03-02T06:24:30;73.80;;;41.57;;
2724;SDS011;1370;52.596;13.112;2024-03-02T06:26:55;61.90;;;41.00;;
2724;SDS011;1370;52.596;13.112;2024-03-02T06:29:21;63.47;;;40.17;;
2724;SDS011;1370;52.596;13.112;2024-03-02T06:31:46;69.37;;;37.80;;
2724;SDS011;1370;52.596;13.112;2024-03-02T06:34:12;75.90;;;42.07;;
2724;SDS011;1370;52.596;13.112;2024-03-02T06:36:38;70.43;;;41.63;;
2724;SDS011;1370;52.596;13.112;2024-03-02T06:39:03;79.30;;;42.90;;
2724;SDS011;1370;52.596;13.112;2024-03-02T06:41:29;67.73;;;38.70;;
2724;SDS011;1370;52.596;13.112;2024-03-02T06:43:54;63.87;;;37.80;;
2724;SDS011;1370;52.596;13.112;2024-03-02T06:46:24;76.27;;;38.80;;
2724;SDS011;1370;52.596;13.112;2024-03-02T06:48:52;68.83;;;38.60;;
2724;SDS011;1370;52.596;13.112;2024-03-02T06:51:18;69.67;;;39.43;;
2724;SDS011;1370;52.596;13.112;2024-03-02T06:53:43;68.73;;;41.53;;
2724;SDS011;1370;52.596;13.112;2024-03-02T06:56:08;77.83;;;41.27;;
2724;SDS011;1370;52.596;13.112;2024-03-02T06:58:34;68.87;;;40.30;;
2724;SDS011;1370;52.596;13.112;2024-03-02T07:01:01;70.43;;;40.30;;
2724;SDS011;1370;52.596;13.112;2024-03-02T07:03:26;59.70;;;39.00;;
2724;SDS011;1370;52.596;13.112;2024-03-02T07:05:52;81.70;;;42.40;;
2724;SDS011;1370;52.596;13.112;2024-03-02T07:08:17;148.13;;;77.53;;
2724;SDS011;1370;52.596;13.112;2024-03-02T07:10:42;106.20;;;57.50;;
2724;SDS011;1370;52.596;13.112;2024-03-02T07:13:08;89.10;;;50.83;;
2724;SDS011;1370;52.596;13.112;2024-03-02T07:15:33;90.97;;;49.07;;
2724;SDS011;1370;52.596;13.112;2024-03-02T07:18:19;85.37;;;48.00;;
2724;SDS011;1370;52.596;13.112;2024-03-02T07:20:44;74.60;;;47.60;;
2724;SDS011;1370;52.596;13.112;2024-03-02T07:23:09;75.13;;;43.03;;
2724;SDS011;1370;52.596;13.112;2024-03-02T07:25:34;84.03;;;47.87;;
2724;SDS011;1370;52.596;13.112;2024-03-02T07:28:00;85.63;;;46.40;;
2724;SDS011;1370;52.596;13.112;2024-03-02T07:30:25;74.50;;;43.30;;
2724;SDS011;1370;52.596;13.112;2024-03-02T07:32:50;69.77;;;41.37;;
2724;SDS011;1370;52.596;13.112;2024-03-02T07:35:16;84.13;;;46.73;;
2724;SDS011;1370;52.596;13.112;2024-03-02T07:37:41;81.87;;;44.03;;
2724;SDS011;1370;52.596;13.112;2024-03-02T07:40:07;73.70;;;42.53;;
2724;SDS011;1370;52.596;13.112;2024-03-02T07:42:37;76.10;;;42.53;;
2724;SDS011;1370;52.596;13.112;2024-03-02T07:45:04;72.67;;;44.67;;
2724;SDS011;1370;52.596;13.112;2024-03-02T07:47:30;73.10;;;42.43;;
2724;SDS011;1370;52.596;13.112;2024-03-02T07:49:55;87.03;;;44.53;;
2724;SDS011;1370;52.596;13.112;2024-03-02T07:52:20;83.33;;;43.47;;
2724;SDS011;1370;52.596;13.112;2024-03-02T07:54:46;68.47;;;42.33;;
2724;SDS011;1370;52.596;13.112;2024-03-02T07:57:11;82.67;;;42.57;;
2724;SDS011;1370;52.596;13.112;2024-03-02T07:59:37;68.67;;;41.60;;
2724;SDS011;1370;52.596;13.112;2024-03-02T08:02:02;78.37;;;42.50;;
2724;SDS011;1370;52.596;13.112;2024-03-02T08:04:28;75.03;;;40.87;;
2724;SDS011;1370;52.596;13.112;2024-03-02T08:06:53;86.60;;;46.60;;
2724;SDS011;1370;52.596;13.112;2024-03-02T08:09:19;82.57;;;45.77;;
2724;SDS011;1370;52.596;13.112;2024-03-02T08:11:44;74.67;;;42.60;;
2724;SDS011;1370;52.596;13.112;2024-03-02T08:14:10;76.20;;;44.90;;
2724;SDS011;1370;52.596;13.112;2024-03-02T08:16:35;62.50;;;39.73;;
2724;SDS011;1370;52.596;13.112;2024-03-02T08:19:01;69.20;;;40.70;;
2724;SDS011;1370;52.596;13.112;2024-03-02T08:21:26;75.77;;;40.40;;
2724;SDS011;1370;52.596;13.112;2024-03-02T08:23:51;74.50;;;40.57;;
2724;SDS011;1370;52.596;13.112;2024-03-02T08:26:17;65.80;;;42.20;;
2724;SDS011;1370;52.596;13.112;2024-03-02T08:28:42;76.03;;;41.83;;
2724;SDS011;1370;52.596;13.112;2024-03-02T08:31:07;73.67;;;39.57;;
2724;SDS011;1370;52.596;13.112;2024-03-02T08:33:33;66.77;;;40.87;;
2724;SDS011;1370;52.596;13.112;2024-03-02T08:35:58;73.90;;;41.43;;
2724;SDS011;1370;52.596;13.112;2024-03-02T08:38:24;68.87;;;39.43;;
2724;SDS011;1370;52.596;13.112;2024-03-02T08:40:49;71.13;;;39.10;;
2724;SDS011;1370;52.596;13.112;2024-03-02T08:43:15;69.10;;;41.67;;
2724;SDS011;1370;52.596;13.112;2024-03-02T08:45:40;78.13;;;40.77;;
2724;SDS011;1370;52.596;13.112;2024-03-02T08:48:07;75.27;;;43.37;;
2724;SDS011;1370;52.596;13.112;2024-03-02T08:50:33;73.20;;;42.23;;
2724;SDS011;1370;52.596;13.112;2024-03-02T08:52:59;70.57;;;42.10;;
2724;SDS011;1370;52.596;13.112;2024-03-02T08:55:24;72.53;;;42.77;;
2724;SDS011;1370;52.596;13.112;2024-03-02T08:57:49;72.93;;;42.60;;
2724;SDS011;1370;52.596;13.112;2024-03-02T09:00:15;74.00;;;44.30;;
2724;SDS011;1370;52.596;13.112;2024-03-02T09:02:43;82.03;;;43.47;;
2724;SDS011;1370;52.596;13.112;2024-03-02T09:05:11;68.97;;;42.70;;
2724;SDS011;1370;52.596;13.112;2024-03-02T09:07:37;82.57;;;43.87;;
2724;SDS011;1370;52.596;13.112;2024-03-02T09:10:03;73.57;;;41.97;;
2724;SDS011;1370;52.596;13.112;2024-03-02T09:12:29;72.23;;;42.67;;
2724;SDS011;1370;52.596;13.112;2024-03-02T09:14:55;81.43;;;43.90;;
2724;SDS011;1370;52.596;13.112;2024-03-02T09:17:20;75.80;;;44.77;;
2724;SDS011;1370;52.596;13.112;2024-03-02T09:19:45;76.03;;;41.40;;
2724;SDS011;1370;52.596;13.112;2024-03-02T09:22:11;70.27;;;41.93;;
2724;SDS011;1370;52.596;13.112;2024-03-02T09:24:36;68.43;;;42.53;;
2724;SDS011;1370;52.596;13.112;2024-03-02T09:27:01;70.73;;;40.40;;
2724;SDS011;1370;52.596;13.112;2024-03-02T09:29:27;75.47;;;44.67;;
2724;SDS011;1370;52.596;13.112;2024-03-02T09:31:52;82.13;;;44.60;;
2724;SDS011;1370;52.596;13.112;2024-03-02T09:34:17;74.57;;;42.93;;
2724;SDS011;1370;52.596;13.112;2024-03-02T09:36:43;84.40;;;43.80;;
2724;SDS011;1370;52.596;13.112;2024-03-02T09:39:08;69.70;;;42.07;;
2724;SDS011;1370;52.596;13.112;2024-03-02T09:41:37;71.97;;;44.63;;
2724;SDS011;1370;52.596;13.112;2024-03-02T09:44:05;63.33;;;40.03;;
2724;SDS011;1370;52.596;13.112;2024-03-02T09:46:31;78.33;;;41.00;;
2724;SDS011;1370;52.596;13.112;2024-03-02T09:48:57;69.07;;;40.00;;
2724;SDS011;1370;52.596;13.112;2024-03-02T09:51:22;67.03;;;38.47;;
2724;SDS011;1370;52.596;13.112;2024-03-02T09:53:48;72.97;;;41.90;;
2724;SDS011;1370;52.596;13.112;2024-03-02T09:56:14;65.07;;;37.33;;
2724;SDS011;1370;52.596;13.112;2024-03-02T09:58:40;73.23;;;39.37;;
2724;SDS011;1370;52.596;13.112;2024-03-02T10:01:06;63.77;;;38.47;;
2724;SDS011;1370;52.596;13.112;2024-03-02T10:03:31;68.17;;;39.00;;
2724;SDS011;1370;52.596;13.112;2024-03-02T10:06:17;65.40;;;38.80;;
2724;SDS011;1370;52.596;13.112;2024-03-02T10:08:49;76.33;;;43.90;;
2724;SDS011;1370;52.596;13.112;2024-03-02T10:14:06;69.80;;;37.30;;
2724;SDS011;1370;52.596;13.112;2024-03-02T10:17:00;63.73;;;40.13;;
2724;SDS011;1370;52.596;13.112;2024-03-02T10:19:21;58.77;;;37.20;;
2724;SDS011;1370;52.596;13.112;2024-03-02T10:21:48;58.53;;;38.17;;
2724;SDS011;1370;52.596;13.112;2024-03-02T10:24:17;59.00;;;38.30;;
2724;SDS011;1370;52.596;13.112;2024-03-02T10:26:46;71.63;;;38.27;;
2724;SDS011;1370;52.596;13.112;2024-03-02T10:29:11;63.47;;;38.17;;
2724;SDS011;1370;52.596;13.112;2024-03-02T10:31:41;68.10;;;39.10;;
2724;SDS011;1370;52.596;13.112;2024-03-02T10:34:07;70.27;;;36.97;;
2724;SDS011;1370;52.596;13.112;2024-03-02T10:36:36;61.90;;;38.70;;
2724;SDS011;1370;52.596;13.112;2024-03-02T10:39:05;72.47;;;41.40;;
2724;SDS011;1370;52.596;13.112;2024-03-02T10:41:32;61.63;;;38.97;;
2724;SDS011;1370;52.596;13.112;2024-03-02T10:43:59;61.00;;;36.50;;
2724;SDS011;1370;52.596;13.112;2024-03-02T10:46:28;49.20;;;34.50;;
2724;SDS011;1370;52.596;13.112;2024-03-02T10:48:55;60.50;;;33.00;;
2724;SDS011;1370;52.596;13.112;2024-03-02T10:51:23;62.20;;;33.50;;
2724;SDS011;1370;52.596;13.112;2024-03-02T10:53:49;54.30;;;35.53;;
2724;SDS011;1370;52.596;13.112;2024-03-02T10:56:15;59.93;;;34.33;;
2724;SDS011;1370;52.596;13.112;2024-03-02T10:58:49;66.73;;;34.97;;
2724;SDS011;1370;52.596;13.112;2024-03-02T11:01:16;58.87;;;35.60;;
2724;SDS011;1370;52.596;13.112;2024-03-02T11:03:42;54.63;;;32.10;;
2724;SDS011;1370;52.596;13.112;2024-03-02T11:06:08;48.07;;;31.23;;
2724;SDS011;1370;52.596;13.112;2024-03-02T11:08:35;48.20;;;31.63;;
2724;SDS011;1370;52.596;13.112;2024-03-02T11:11:07;50.07;;;31.17;;
2724;SDS011;1370;52.596;13.112;2024-03-02T11:13:33;57.53;;;33.37;;
2724;SDS011;1370;52.596;13.112;2024-03-02T11:16:01;56.90;;;32.60;;
2724;SDS011;1370;52.596;13.112;2024-03-02T11:18:29;51.63;;;32.47;;
2724;SDS011;1370;52.596;13.112;2024-03-02T11:20:54;48.53;;;30.50;;
2724;SDS011;1370;52.596;13.112;2024-03-02T11:23:20;55.67;;;32.70;;
2724;SDS011;1370;52.596;13.112;2024-03-02T11:26:16;53.07;;;30.27;;
2724;SDS011;1370;52.596;13.112;2024-03-02T11:32:00;44.77;;;28.37;;
2724;SDS011;1370;52.596;13.112;2024-03-02T11:36:55;44.57;;;28.03;;
2724;SDS011;1370;52.596;13.112;2024-03-02T11:39:20;41.53;;;27.13;;
2724;SDS011;1370;52.596;13.112;2024-03-02T11:41:46;63.53;;;37.23;;
2724;SDS011;1370;52.596;13.112;2024-03-02T11:44:11;43.47;;;28.30;;
2724;SDS011;1370;52.596;13.112;2024-03-02T11:46:39;40.13;;;25.80;;
2724;SDS011;1370;52.596;13.112;2024-03-02T11:49:04;38.10;;;26.30;;
2724;SDS011;1370;52.596;13.112;2024-03-02T11:51:29;47.30;;;26.00;;
2724;SDS011;1370;52.596;13.112;2024-03-02T11:53:56;43.67;;;26.57;;
2724;SDS011;1370;52.596;13.112;2024-03-02T11:56:23;44.20;;;27.40;;
2724;SDS011;1370;52.596;13.112;2024-03-02T11:58:52;39.60;;;26.17;;
2724;SDS011;1370;52.596;13.112;2024-03-02T12:01:18;40.47;;;27.90;;
2724;SDS011;1370;52.596;13.112;2024-03-02T12:03:44;35.77;;;24.80;;
2724;SDS011;1370;52.596;13.112;2024-03-02T12:06:10;40.53;;;25.17;;
2724;SDS011;1370;52.596;13.112;2024-03-02T12:08:38;39.03;;;26.67;;
2724;SDS011;1370;52.596;13.112;2024-03-02T12:11:03;46.53;;;26.47;;
2724;SDS011;1370;52.596;13.112;2024-03-02T12:13:28;37.20;;;24.53;;
2724;SDS011;1370;52.596;13.112;2024-03-02T12:15:54;42.27;;;26.27;;
2724;SDS011;1370;52.596;13.112;2024-03-02T12:18:21;37.30;;;23.13;;
2724;SDS011;1370;52.596;13.112;2024-03-02T12:20:46;33.57;;;23.20;;
2724;SDS011;1370;52.596;13.112;2024-03-02T12:23:13;33.57;;;23.80;;
2724;SDS011;1370;52.596;13.112;2024-03-02T12:25:39;38.20;;;25.70;;
2724;SDS011;1370;52.596;13.112;2024-03-02T12:28:04;41.10;;;24.70;;
2724;SDS011;1370;52.596;13.112;2024-03-02T12:30:30;38.23;;;23.00;;
2724;SDS011;1370;52.596;13.112;2024-03-02T12:32:58;27.50;;;22.17;;
2724;SDS011;1370;52.596;13.112;2024-03-02T12:35:24;40.77;;;24.63;;
2724;SDS011;1370;52.596;13.112;2024-03-02T12:37:50;32.03;;;24.10;;
2724;SDS011;1370;52.596;13.112;2024-03-02T12:40:17;33.17;;;21.03;;
2724;SDS011;1370;52.596;13.112;2024-03-02T12:42:43;34.97;;;23.43;;
2724;SDS011;1370;52.596;13.112;2024-03-02T12:45:09;30.07;;;20.97;;
2724;SDS011;1370;52.596;13.112;2024-03-02T12:47:35;36.73;;;22.77;;
2724;SDS011;1370;52.596;13.112;2024-03-02T12:50:01;39.50;;;22.03;;
2724;SDS011;1370;52.596;13.112;2024-03-02T12:52:28;31.03;;;21.83;;
2724;SDS011;1370;52.596;13.112;2024-03-02T12:54:53;35.30;;;21.53;;
2724;SDS011;1370;52.596;13.112;2024-03-02T12:57:24;30.47;;;20.00;;
2724;SDS011;1370;52.596;13.112;2024-03-02T12:59:51;26.27;;;19.90;;
2724;SDS011;1370;52.596;13.112;2024-03-02T13:02:17;30.37;;;18.70;;
2724;SDS011;1370;52.596;13.112;2024-03-02T13:04:42;34.57;;;19.37;;
2724;SDS011;1370;52.596;13.112;2024-03-02T13:07:08;22.03;;;17.63;;
2724;SDS011;1370;52.596;13.112;2024-03-02T13:09:33;27.90;;;17.70;;
2724;SDS011;1370;52.596;13.112;2024-03-02T13:11:59;22.87;;;15.93;;
2724;SDS011;1370;52.596;13.112;2024-03-02T13:14:25;26.23;;;15.47;;
2724;SDS011;1370;52.596;13.112;2024-03-02T13:16:51;20.23;;;14.83;;
2724;SDS011;1370;52.596;13.112;2024-03-02T13:19:17;21.20;;;16.00;;
2724;SDS011;1370;52.596;13.112;2024-03-02T13:21:44;23.20;;;14.33;;
2724;SDS011;1370;52.596;13.112;2024-03-02T13:24:09;25.80;;;14.10;;
2724;SDS011;1370;52.596;13.112;2024-03-02T13:26:34;23.87;;;15.00;;
2724;SDS011;1370;52.596;13.112;2024-03-02T13:29:00;17.83;;;13.70;;
2724;SDS011;1370;52.596;13.112;2024-03-02T13:31:25;21.23;;;13.60;;
2724;SDS011;1370;52.596;13.112;2024-03-02T13:33:51;22.93;;;15.47;;
2724;SDS011;1370;52.596;13.112;2024-03-02T13:36:16;24.20;;;16.63;;
2724;SDS011;1370;52.596;13.112;2024-03-02T13:38:42;19.17;;;16.70;;
2724;SDS011;1370;52.596;13.112;2024-03-02T13:41:07;20.87;;;14.20;;
2724;SDS011;1370;52.596;13.112;2024-03-02T13:43:32;17.90;;;13.23;;
2724;SDS011;1370;52.596;13.112;2024-03-02T13:45:59;17.73;;;12.80;;
2724;SDS011;1370;52.596;13.112;2024-03-02T13:48:25;23.33;;;17.13;;
2724;SDS011;1370;52.596;13.112;2024-03-02T13:50:53;19.87;;;13.20;;
2724;SDS011;1370;52.596;13.112;2024-03-02T13:53:19;16.17;;;12.47;;
2724;SDS011;1370;52.596;13.112;2024-03-02T13:55:45;20.50;;;15.23;;
2724;SDS011;1370;52.596;13.112;2024-03-02T13:58:10;18.80;;;13.90;;
2724;SDS011;1370;52.596;13.112;2024-03-02T14:00:36;20.57;;;14.40;;
2724;SDS011;1370;52.596;13.112;2024-03-02T14:03:03;17.30;;;12.73;;
2724;SDS011;1370;52.596;13.112;2024-03-02T14:05:28;24.30;;;15.90;;
2724;SDS011;1370;52.596;13.112;2024-03-02T14:07:54;19.70;;;15.10;;
2724;SDS011;1370;52.596;13.112;2024-03-02T14:10:19;25.30;;;14.93;;
2724;SDS011;1370;52.596;13.112;2024-03-02T14:12:47;22.43;;;17.70;;
2724;SDS011;1370;52.596;13.112;2024-03-02T14:15:13;26.33;;;17.57;;
2724;SDS011;1370;52.596;13.112;2024-03-02T14:17:38;24.13;;;16.37;;
2724;SDS011;1370;52.596;13.112;2024-03-02T14:20:03;21.47;;;16.17;;
2724;SDS011;1370;52.596;13.112;2024-03-02T14:22:29;26.13;;;17.10;;
2724;SDS011;1370;52.596;13.112;2024-03-02T14:24:55;23.07;;;17.83;;
2724;SDS011;1370;52.596;13.112;2024-03-02T14:27:20;24.30;;;17.63;;
2724;SDS011;1370;52.596;13.112;2024-03-02T14:29:46;25.87;;;16.33;;
2724;SDS011;1370;52.596;13.112;2024-03-02T14:32:11;24.07;;;16.23;;
2724;SDS011;1370;52.596;13.112;2024-03-02T14:34:37;20.50;;;14.87;;
2724;SDS011;1370;52.596;13.112;2024-03-02T14:37:03;23.50;;;16.67;;
2724;SDS011;1370;52.596;13.112;2024-03-02T14:39:28;19.53;;;13.63;;
2724;SDS011;1370;52.596;13.112;2024-03-02T14:41:54;23.53;;;15.13;;